Time;durP1;ratioP1;P1;durP2;ratioP2;P2;SDS_P1;SDS_P2;PMS_P1;PMS_P2;Temp;Humidity;BMP_temperature;BMP_pressure;BME280_temperature;BME280_humidity;BME280_pressure;Samples;Min_cycle;Max_cycle;Signal;HPM_P1;HPM_P2
2023/05/18 00:02:02;;;;;;;6.88;5.35;;;;;;;;;;5065931;28;20381;-65
2023/05/18 00:04:31;;;;;;;7.32;5.10;;;;;;;;;;5065853;28;20099;-64
2023/05/18 00:07:02;;;;;;;6.30;5.13;;;;;;;;;;5065159;28;20072;-65
2023/05/18 00:09:29;;;;;;;8.30;5.57;;;;;;;;;;5066175;28;20045;-65
2023/05/18 00:11:55;;;;;;;9.60;5.82;;;;;;;;;;5062058;28;20105;-64
2023/05/18 00:14:22;;;;;;;8.30;5.93;;;;;;;;;;5067838;28;20049;-64
2023/05/18 00:16:48;;;;;;;10.68;6.00;;;;;;;;;;5058889;28;20048;-65
2023/05/18 00:19:15;;;;;;;9.20;5.75;;;;;;;;;;5069546;28;20254;-64
2023/05/18 00:21:42;;;;;;;10.13;5.65;;;;;;;;;;5054683;28;20412;-64
2023/05/18 00:24:11;;;;;;;10.77;6.17;;;;;;;;;;5071496;28;20403;-65
2023/05/18 00:26:38;;;;;;;8.32;5.80;;;;;;;;;;5051323;28;20488;-64
2023/05/18 00:29:05;;;;;;;8.18;5.65;;;;;;;;;;5072476;28;20102;-64
2023/05/18 00:31:35;;;;;;;12.30;6.90;;;;;;;;;;5068388;28;20048;-65
2023/05/18 00:34:02;;;;;;;7.82;5.38;;;;;;;;;;5073032;28;20052;-65
2023/05/18 00:36:30;;;;;;;10.57;6.00;;;;;;;;;;5067155;28;20102;-65
2023/05/18 00:38:57;;;;;;;8.85;6.00;;;;;;;;;;5072690;28;20118;-65
2023/05/18 00:41:25;;;;;;;10.18;5.72;;;;;;;;;;5064306;28;20052;-65
2023/05/18 00:43:52;;;;;;;8.18;5.70;;;;;;;;;;5072648;28;20467;-64
2023/05/18 00:46:18;;;;;;;8.57;6.60;;;;;;;;;;5062976;28;20093;-65
2023/05/18 00:48:45;;;;;;;12.05;6.88;;;;;;;;;;5072550;28;20299;-64
2023/05/18 00:51:12;;;;;;;8.20;5.80;;;;;;;;;;5060872;28;20052;-65
2023/05/18 00:53:38;;;;;;;8.30;6.00;;;;;;;;;;5072147;28;20090;-64
2023/05/18 00:56:06;;;;;;;;;;;;;;;;;;5059928;28;20061;-65
2023/05/18 00:58:32;;;;;;;8.57;5.28;;;;;;;;;;5071801;28;19920;-64
2023/05/18 01:01:01;;;;;;;8.55;5.70;;;;;;;;;;5057620;28;20102;-65
2023/05/18 01:03:29;;;;;;;7.38;5.70;;;;;;;;;;5072000;28;20049;-65
2023/05/18 01:05:56;;;;;;;9.98;6.47;;;;;;;;;;5055497;28;20052;-65
2023/05/18 01:08:25;;;;;;;7.38;5.93;;;;;;;;;;5072219;28;20047;-65
2023/05/18 01:10:54;;;;;;;7.55;5.53;;;;;;;;;;5053599;28;20060;-64
2023/05/18 01:13:29;;;;;;;8.52;5.45;;;;;;;;;;5071971;28;20045;-65
2023/05/18 01:16:00;;;;;;;10.38;6.32;;;;;;;;;;5052204;28;20105;-65
2023/05/18 01:18:31;;;;;;;10.55;5.78;;;;;;;;;;5071871;28;20048;-65
2023/05/18 01:21:09;;;;;;;7.57;5.45;;;;;;;;;;5049949;28;20045;-64
2023/05/18 01:23:40;;;;;;;8.38;5.80;;;;;;;;;;5071937;28;20565;-65
2023/05/18 01:26:30;;;;;;;9.13;6.00;;;;;;;;;;5058250;28;20124;-65
2023/05/18 01:29:01;;;;;;;9.77;6.55;;;;;;;;;;5066348;28;20048;-65
2023/05/18 01:31:28;;;;;;;9.15;5.80;;;;;;;;;;5067562;28;20040;-65
2023/05/18 01:33:55;;;;;;;10.27;5.97;;;;;;;;;;5071721;28;20103;-64
2023/05/18 01:36:21;;;;;;;8.15;6.00;;;;;;;;;;5066906;28;20080;-64
2023/05/18 01:38:48;;;;;;;8.15;5.80;;;;;;;;;;5071152;28;20053;-65
2023/05/18 01:41:21;;;;;;;7.13;5.88;;;;;;;;;;5063092;28;20049;-65
2023/05/18 01:43:53;;;;;;;11.63;6.07;;;;;;;;;;5070571;28;20124;-65
2023/05/18 01:46:23;;;;;;;9.65;6.88;;;;;;;;;;5062071;28;20062;-65
2023/05/18 01:48:53;;;;;;;9.40;6.10;;;;;;;;;;5071553;28;20071;-65
2023/05/18 01:51:20;;;;;;;9.07;6.10;;;;;;;;;;5060672;28;20200;-65
2023/05/18 01:53:55;;;;;;;8.57;5.97;;;;;;;;;;5071326;28;20626;-64
2023/05/18 01:56:22;;;;;;;7.35;5.35;;;;;;;;;;5051856;28;20037;-64
2023/05/18 01:58:49;;;;;;;7.85;6.10;;;;;;;;;;5071028;28;20091;-65
2023/05/18 02:01:18;;;;;;;8.57;6.95;;;;;;;;;;5062429;28;20107;-65
2023/05/18 02:03:45;;;;;;;8.98;6.88;;;;;;;;;;5071373;28;20123;-65
2023/05/18 02:06:13;;;;;;;9.00;6.35;;;;;;;;;;5067809;28;20549;-64
2023/05/18 02:08:39;;;;;;;7.38;5.88;;;;;;;;;;5070771;28;20040;-64
2023/05/18 02:11:06;;;;;;;8.38;6.28;;;;;;;;;;5067107;28;20102;-64
2023/05/18 02:13:32;;;;;;;8.23;6.07;;;;;;;;;;5070698;28;20484;-64
2023/05/18 02:15:59;;;;;;;9.15;6.00;;;;;;;;;;5064379;28;20052;-65
2023/05/18 02:18:28;;;;;;;10.73;5.82;;;;;;;;;;5070895;28;20040;-64
2023/05/18 02:20:58;;;;;;;7.45;6.15;;;;;;;;;;5061636;28;20087;-64
2023/05/18 02:23:25;;;;;;;9.93;6.43;;;;;;;;;;5070656;28;20071;-65
2023/05/18 02:25:55;;;;;;;7.18;5.40;;;;;;;;;;5064542;28;20052;-64
2023/05/18 02:28:21;;;;;;;8.70;5.70;;;;;;;;;;5071395;28;20053;-64
2023/05/18 02:30:48;;;;;;;8.13;5.85;;;;;;;;;;5058917;28;20105;-64
2023/05/18 02:33:16;;;;;;;8.10;5.57;;;;;;;;;;5070850;28;20067;-65
2023/05/18 02:35:42;;;;;;;10.32;6.20;;;;;;;;;;5062449;28;20053;-65
2023/05/18 02:38:09;;;;;;;8.52;6.05;;;;;;;;;;5071131;28;20048;-64
2023/05/18 02:40:36;;;;;;;9.05;5.57;;;;;;;;;;5054072;28;20488;-65
2023/05/18 02:43:02;;;;;;;6.95;5.60;;;;;;;;;;5070148;28;20094;-65
2023/05/18 02:45:28;;;;;;;8.82;6.28;;;;;;;;;;5060826;28;20073;-65
2023/05/18 02:47:55;;;;;;;7.07;5.45;;;;;;;;;;5071025;28;20619;-65
2023/05/18 02:50:22;;;;;;;7.20;5.35;;;;;;;;;;5062899;28;20048;-65
2023/05/18 02:52:48;;;;;;;7.38;5.38;;;;;;;;;;5074223;28;20080;-65
2023/05/18 02:55:16;;;;;;;8.98;5.55;;;;;;;;;;5063431;28;20056;-64
2023/05/18 02:57:45;;;;;;;7.30;5.70;;;;;;;;;;5073881;28;20053;-65
2023/05/18 03:00:15;;;;;;;9.00;5.97;;;;;;;;;;5063831;28;20049;-65
2023/05/18 03:02:42;;;;;;;7.63;5.68;;;;;;;;;;5070341;28;20416;-64
2023/05/18 03:05:09;;;;;;;8.88;5.90;;;;;;;;;;5062309;28;20061;-65
2023/05/18 03:07:36;;;;;;;10.00;6.28;;;;;;;;;;5070034;28;20087;-65
2023/05/18 03:10:02;;;;;;;11.30;6.20;;;;;;;;;;5058294;28;20115;-65
2023/05/18 03:12:29;;;;;;;6.25;5.45;;;;;;;;;;5061427;28;20496;-65
2023/05/18 03:14:55;;;;;;;7.35;6.10;;;;;;;;;;5071467;28;20091;-65
2023/05/18 03:17:22;;;;;;;6.72;5.82;;;;;;;;;;5074298;28;20048;-64
2023/05/18 03:19:48;;;;;;;7.45;6.22;;;;;;;;;;5071227;28;20135;-65
2023/05/18 03:22:15;;;;;;;6.78;5.82;;;;;;;;;;5073540;28;20488;-65
2023/05/18 03:24:41;;;;;;;6.90;6.00;;;;;;;;;;5069018;28;20386;-64
2023/05/18 03:27:08;;;;;;;7.07;5.80;;;;;;;;;;5074103;28;20103;-65
2023/05/18 03:29:35;;;;;;;8.32;5.78;;;;;;;;;;5069772;28;20084;-65
2023/05/18 03:32:01;;;;;;;9.57;5.70;;;;;;;;;;5073400;28;20049;-65
2023/05/18 03:34:28;;;;;;;8.60;5.78;;;;;;;;;;5069371;28;20077;-64
2023/05/18 03:36:54;;;;;;;7.90;5.43;;;;;;;;;;5071622;28;20052;-65
2023/05/18 03:39:21;;;;;;;6.85;5.85;;;;;;;;;;5070101;28;20110;-65
2023/05/18 03:41:47;;;;;;;8.40;6.07;;;;;;;;;;5070985;28;20044;-65
2023/05/18 03:44:13;;;;;;;8.60;6.25;;;;;;;;;;5071819;28;20094;-64
2023/05/18 03:46:40;;;;;;;7.43;5.97;;;;;;;;;;5069049;28;20094;-65
2023/05/18 03:49:07;;;;;;;8.30;5.53;;;;;;;;;;5072838;28;20052;-64
2023/05/18 03:51:33;;;;;;;8.00;5.75;;;;;;;;;;5059769;28;20098;-65
2023/05/18 03:54:00;;;;;;;7.03;5.80;;;;;;;;;;5073889;28;20094;-65
2023/05/18 03:56:29;;;;;;;8.98;6.18;;;;;;;;;;5064479;28;20094;-65
2023/05/18 03:58:57;;;;;;;8.15;6.68;;;;;;;;;;5073356;28;20041;-65
2023/05/18 04:01:23;;;;;;;8.02;6.03;;;;;;;;;;5062651;28;20040;-64
2023/05/18 04:03:50;;;;;;;7.72;6.38;;;;;;;;;;5072821;28;20048;-64
2023/05/18 04:06:16;;;;;;;8.98;5.72;;;;;;;;;;5059163;28;20503;-64
2023/05/18 04:08:44;;;;;;;8.60;6.35;;;;;;;;;;5073272;28;20488;-65
2023/05/18 04:11:11;;;;;;;9.38;6.28;;;;;;;;;;5044704;28;20052;-64
2023/05/18 04:13:37;;;;;;;8.77;6.13;;;;;;;;;;5073132;28;20102;-65
2023/05/18 04:16:04;;;;;;;9.85;5.90;;;;;;;;;;5070671;28;20044;-65
2023/05/18 04:18:30;;;;;;;7.97;6.15;;;;;;;;;;5071649;28;20045;-65
2023/05/18 04:20:57;;;;;;;9.20;6.90;;;;;;;;;;5069499;28;20110;-64
2023/05/18 04:23:23;;;;;;;9.43;6.30;;;;;;;;;;5073084;28;20052;-65
2023/05/18 04:25:50;;;;;;;8.13;6.60;;;;;;;;;;5069247;28;20491;-65
2023/05/18 04:28:18;;;;;;;8.57;6.13;;;;;;;;;;5072830;28;20561;-65
2023/05/18 04:30:44;;;;;;;8.75;6.22;;;;;;;;;;5068428;28;20430;-64
2023/05/18 04:33:12;;;;;;;10.03;6.50;;;;;;;;;;5072458;28;20091;-64
2023/05/18 04:35:38;;;;;;;9.68;7.00;;;;;;;;;;5058598;28;20522;-64
2023/05/18 04:38:05;;;;;;;8.45;5.97;;;;;;;;;;5067212;28;20048;-64
2023/05/18 04:40:32;;;;;;;12.50;6.85;;;;;;;;;;5066571;28;20045;-65
2023/05/18 04:42:59;;;;;;;8.93;6.80;;;;;;;;;;5072195;28;20096;-64
2023/05/18 04:45:26;;;;;;;8.48;6.25;;;;;;;;;;5060857;28;20051;-65
2023/05/18 04:47:52;;;;;;;8.48;7.03;;;;;;;;;;5072817;28;20114;-64
2023/05/18 04:50:20;;;;;;;9.27;7.13;;;;;;;;;;5064938;28;20498;-65
2023/05/18 04:52:47;;;;;;;8.93;7.35;;;;;;;;;;5071860;28;20108;-65
2023/05/18 04:55:14;;;;;;;;;;;;;;;;;;5064122;28;20049;-64
2023/05/18 04:57:41;;;;;;;8.60;7.70;;;;;;;;;;5071788;28;19969;-64
2023/05/18 05:00:08;;;;;;;8.23;6.45;;;;;;;;;;5062016;28;20079;-64
2023/05/18 05:02:35;;;;;;;11.85;7.05;;;;;;;;;;5071190;28;20044;-65
2023/05/18 05:05:01;;;;;;;8.57;6.38;;;;;;;;;;5062619;28;20068;-64
2023/05/18 05:07:28;;;;;;;10.55;6.72;;;;;;;;;;5067055;28;20060;-64
2023/05/18 05:09:54;;;;;;;9.05;6.47;;;;;;;;;;5058256;28;20060;-65
2023/05/18 05:12:20;;;;;;;13.13;6.50;;;;;;;;;;5056713;28;20094;-64
2023/05/18 05:14:47;;;;;;;10.23;6.78;;;;;;;;;;5069384;28;20135;-65
2023/05/18 05:17:13;;;;;;;7.63;6.82;;;;;;;;;;5072223;28;20076;-65
2023/05/18 05:19:41;;;;;;;8.88;6.28;;;;;;;;;;5068266;28;20076;-64
2023/05/18 05:22:07;;;;;;;8.20;6.50;;;;;;;;;;5070887;28;20102;-64
2023/05/18 05:24:34;;;;;;;7.95;6.20;;;;;;;;;;5068076;28;20069;-64
2023/05/18 05:27:00;;;;;;;8.48;6.30;;;;;;;;;;5071904;28;20052;-64
2023/05/18 05:29:26;;;;;;;7.13;6.43;;;;;;;;;;5067683;28;20050;-64
2023/05/18 05:31:53;;;;;;;10.13;6.55;;;;;;;;;;5071059;28;20060;-64
2023/05/18 05:34:19;;;;;;;9.43;7.18;;;;;;;;;;5067577;28;20553;-65
2023/05/18 05:36:46;;;;;;;10.35;7.70;;;;;;;;;;5067636;28;20041;-65
2023/05/18 05:39:12;;;;;;;9.20;7.30;;;;;;;;;;5069655;28;20184;-65
2023/05/18 05:41:39;;;;;;;11.02;7.18;;;;;;;;;;5065717;28;20102;-65
2023/05/18 05:44:05;;;;;;;7.32;6.53;;;;;;;;;;5071022;28;20117;-66
2023/05/18 05:46:31;;;;;;;8.98;7.07;;;;;;;;;;5054531;28;20094;-65
2023/05/18 05:48:59;;;;;;;8.88;7.47;;;;;;;;;;5071897;28;20407;-64
2023/05/18 05:51:25;;;;;;;9.52;7.13;;;;;;;;;;5065079;28;20087;-65
2023/05/18 05:53:52;;;;;;;13.38;9.68;;;;;;;;;;5061632;28;20408;-65
2023/05/18 05:56:18;;;;;;;16.50;11.40;;;;;;;;;;5049381;28;20053;-64
2023/05/18 05:58:44;;;;;;;13.20;10.65;;;;;;;;;;5051778;28;20053;-65
2023/05/18 06:01:11;;;;;;;14.63;10.20;;;;;;;;;;5050451;28;20114;-65
2023/05/18 06:03:37;;;;;;;10.57;7.88;;;;;;;;;;5050420;28;20148;-65
2023/05/18 06:06:04;;;;;;;10.80;7.87;;;;;;;;;;5049529;28;20051;-65
2023/05/18 06:08:31;;;;;;;11.07;8.32;;;;;;;;;;5051552;28;20086;-65
2023/05/18 06:10:57;;;;;;;12.25;7.90;;;;;;;;;;5049661;28;20053;-65
2023/05/18 06:13:24;;;;;;;9.63;7.32;;;;;;;;;;5050726;28;20044;-65
2023/05/18 06:15:50;;;;;;;13.48;8.73;;;;;;;;;;5043732;28;20080;-65
2023/05/18 06:18:17;;;;;;;10.25;8.50;;;;;;;;;;5050542;28;20408;-65
2023/05/18 06:20:44;;;;;;;10.80;8.60;;;;;;;;;;5047559;28;20049;-66
2023/05/18 06:23:10;;;;;;;10.80;8.57;;;;;;;;;;5054388;28;20049;-64
2023/05/18 06:25:36;;;;;;;10.75;7.75;;;;;;;;;;5056642;28;20527;-65
2023/05/18 06:28:03;;;;;;;13.88;8.65;;;;;;;;;;5055503;28;20049;-64
2023/05/18 06:30:29;;;;;;;13.13;9.00;;;;;;;;;;5047994;28;20115;-65
2023/05/18 06:32:56;;;;;;;12.02;8.60;;;;;;;;;;5074660;28;20074;-64
2023/05/18 06:35:23;;;;;;;12.85;9.50;;;;;;;;;;5062626;28;20053;-65
2023/05/18 06:37:50;;;;;;;;;;;;;;;;;;5054553;28;20500;-64
2023/05/18 06:40:16;;;;;;;13.20;8.77;;;;;;;;;;5045252;28;19968;-64
2023/05/18 06:42:43;;;;;;;13.38;8.88;;;;;;;;;;5058499;28;20334;-64
2023/05/18 06:45:09;;;;;;;15.07;9.52;;;;;;;;;;5062144;28;20045;-64
2023/05/18 06:47:36;;;;;;;12.80;9.53;;;;;;;;;;5070231;28;20052;-64
2023/05/18 06:50:03;;;;;;;14.73;10.00;;;;;;;;;;5064778;28;20128;-64
2023/05/18 06:52:30;;;;;;;16.50;10.02;;;;;;;;;;5068764;28;20040;-64
2023/05/18 06:54:56;;;;;;;14.63;10.27;;;;;;;;;;5063860;28;20558;-65
2023/05/18 06:57:22;;;;;;;17.25;11.05;;;;;;;;;;5067432;28;20636;-64
2023/05/18 06:59:52;;;;;;;13.93;10.60;;;;;;;;;;5061887;28;20073;-64
2023/05/18 07:02:20;;;;;;;14.60;10.07;;;;;;;;;;5059102;28;20075;-64
2023/05/18 07:04:46;;;;;;;;;;;;;;;;;;5067357;28;20566;-64
2023/05/18 07:07:13;;;;;;;13.80;11.02;;;;;;;;;;5065478;28;19924;-64
2023/05/18 07:09:42;;;;;;;11.82;10.27;;;;;;;;;;5065362;28;20053;-64
2023/05/18 07:12:08;;;;;;;16.38;11.43;;;;;;;;;;5056157;28;20052;-64
2023/05/18 07:14:35;;;;;;;16.33;11.15;;;;;;;;;;5072049;28;20052;-64
2023/05/18 07:17:01;;;;;;;18.05;12.02;;;;;;;;;;5073924;28;20049;-65
2023/05/18 07:19:27;;;;;;;15.75;10.90;;;;;;;;;;5071005;28;20505;-64
2023/05/18 07:21:55;;;;;;;15.60;11.73;;;;;;;;;;5072920;28;20091;-64
2023/05/18 07:24:22;;;;;;;14.93;11.38;;;;;;;;;;5069855;28;20044;-64
2023/05/18 07:26:48;;;;;;;15.75;11.73;;;;;;;;;;5074111;28;20084;-64
2023/05/18 07:29:14;;;;;;;15.43;11.35;;;;;;;;;;5070857;28;20049;-64
2023/05/18 07:31:41;;;;;;;19.48;11.75;;;;;;;;;;5072076;28;20070;-64
2023/05/18 07:34:08;;;;;;;17.13;11.00;;;;;;;;;;5072408;28;20048;-64
2023/05/18 07:36:34;;;;;;;16.52;11.13;;;;;;;;;;5069718;28;20335;-64
2023/05/18 07:39:00;;;;;;;12.93;10.43;;;;;;;;;;5073708;28;20122;-64
2023/05/18 07:41:27;;;;;;;15.98;10.82;;;;;;;;;;5066877;28;20102;-64
2023/05/18 07:43:53;;;;;;;15.00;9.88;;;;;;;;;;5074038;28;20060;-64
2023/05/18 07:46:20;;;;;;;11.88;8.52;;;;;;;;;;5066416;28;20049;-64
2023/05/18 07:48:46;;;;;;;11.65;9.32;;;;;;;;;;5074187;28;20047;-64
2023/05/18 07:51:12;;;;;;;14.27;9.20;;;;;;;;;;5060004;28;20082;-64
2023/05/18 07:53:40;;;;;;;12.02;9.18;;;;;;;;;;5073648;28;20052;-64
2023/05/18 07:56:07;;;;;;;;;;;;;;;;;;5065008;28;20123;-64
2023/05/18 07:58:33;;;;;;;;;;;;;;;;;;5074206;28;19924;-64
2023/05/18 08:01:00;;;;;;;13.18;9.05;;;;;;;;;;5063212;28;19974;-64
2023/05/18 08:03:26;;;;;;;13.20;9.30;;;;;;;;;;5073253;28;20499;-65
2023/05/18 08:05:53;;;;;;;15.10;9.40;;;;;;;;;;5058280;28;20060;-64
2023/05/18 08:08:20;;;;;;;12.02;8.10;;;;;;;;;;5073582;28;20113;-64
2023/05/18 08:10:47;;;;;;;11.75;8.20;;;;;;;;;;5045252;28;20053;-64
2023/05/18 08:13:13;;;;;;;11.40;9.05;;;;;;;;;;5045397;28;20048;-64
2023/05/18 08:15:40;;;;;;;10.50;8.32;;;;;;;;;;5071399;28;20052;-64
2023/05/18 08:18:06;;;;;;;10.85;7.95;;;;;;;;;;5073323;28;20041;-65
2023/05/18 08:20:33;;;;;;;11.63;7.17;;;;;;;;;;5069943;28;20051;-64
2023/05/18 08:22:59;;;;;;;11.38;7.68;;;;;;;;;;5072882;28;20352;-64
2023/05/18 08:25:26;;;;;;;13.30;7.82;;;;;;;;;;5067969;28;20047;-64
2023/05/18 08:27:52;;;;;;;9.83;7.40;;;;;;;;;;5073228;28;20122;-64
2023/05/18 08:30:20;;;;;;;9.93;6.88;;;;;;;;;;5068122;28;20558;-64
2023/05/18 08:32:47;;;;;;;9.15;6.13;;;;;;;;;;5072322;28;20055;-64
2023/05/18 08:35:13;;;;;;;9.02;6.55;;;;;;;;;;5067045;28;20052;-64
2023/05/18 08:37:40;;;;;;;9.93;6.13;;;;;;;;;;5072756;28;20603;-64
2023/05/18 08:40:07;;;;;;;7.38;5.97;;;;;;;;;;5066270;28;20056;-64
2023/05/18 08:42:38;;;;;;;8.35;6.10;;;;;;;;;;5072276;28;20045;-63
2023/05/18 08:45:34;;;;;;;8.13;5.75;;;;;;;;;;5065523;28;20836;-64
2023/05/18 08:48:01;;;;;;;10.80;5.43;;;;;;;;;;5071766;28;20075;-64
2023/05/18 08:50:29;;;;;;;7.32;5.68;;;;;;;;;;5064398;28;20270;-64
2023/05/18 08:53:00;;;;;;;7.03;5.57;;;;;;;;;;5071798;28;20510;-64
2023/05/18 08:55:27;;;;;;;6.30;5.15;;;;;;;;;;5063766;28;20382;-64
2023/05/18 08:57:54;;;;;;;;;;;;;;;;;;5072441;28;20048;-64
2023/05/18 09:00:22;;;;;;;7.25;5.43;;;;;;;;;;5062707;28;19959;-64
2023/05/18 09:02:50;;;;;;;7.95;5.30;;;;;;;;;;5071301;28;20053;-64
2023/05/18 09:05:17;;;;;;;8.15;5.25;;;;;;;;;;5051909;28;20140;-64
2023/05/18 09:07:44;;;;;;;6.43;5.10;;;;;;;;;;5063263;28;20132;-64
2023/05/18 09:10:12;;;;;;;10.25;5.53;;;;;;;;;;5043455;28;20053;-64
2023/05/18 09:12:40;;;;;;;9.07;5.38;;;;;;;;;;5062515;28;20062;-64
2023/05/18 09:15:10;;;;;;;6.47;5.25;;;;;;;;;;5070222;28;20052;-64
2023/05/18 09:17:37;;;;;;;7.68;5.78;;;;;;;;;;5071805;28;20098;-64
2023/05/18 09:20:06;;;;;;;9.85;5.93;;;;;;;;;;5068440;28;20056;-64
2023/05/18 09:22:39;;;;;;;6.53;5.40;;;;;;;;;;5071539;28;20052;-64
2023/05/18 09:25:09;;;;;;;7.72;5.53;;;;;;;;;;5068510;28;20447;-64
2023/05/18 09:27:36;;;;;;;7.00;5.45;;;;;;;;;;5071759;28;20047;-64
2023/05/18 09:30:04;;;;;;;8.25;5.65;;;;;;;;;;5065940;28;20125;-64
2023/05/18 09:32:33;;;;;;;7.05;4.97;;;;;;;;;;5071277;28;20055;-64
2023/05/18 09:35:03;;;;;;;6.93;5.18;;;;;;;;;;5065933;28;20083;-64
2023/05/18 09:37:30;;;;;;;7.68;5.70;;;;;;;;;;5071164;28;20040;-64
2023/05/18 09:39:57;;;;;;;5.97;5.35;;;;;;;;;;5061636;28;20061;-64
2023/05/18 09:42:37;;;;;;;8.52;5.70;;;;;;;;;;5071409;28;20049;-64
2023/05/18 09:45:22;;;;;;;9.25;5.43;;;;;;;;;;5059276;28;20099;-64
2023/05/18 09:47:49;;;;;;;8.98;5.82;;;;;;;;;;5071943;28;20102;-64
2023/05/18 09:50:16;;;;;;;;;;;;;;;;;;5058378;28;20094;-64
2023/05/18 09:52:43;;;;;;;6.93;5.35;;;;;;;;;;5070403;28;19920;-64
2023/05/18 09:55:10;;;;;;;;;;;;;;;;;;5062990;28;20049;-64
2023/05/18 09:57:40;;;;;;;6.88;6.18;;;;;;;;;;5070836;28;19947;-64
2023/05/18 10:00:09;;;;;;;7.43;5.20;;;;;;;;;;5061903;28;20049;-64
2023/05/18 10:02:44;;;;;;;7.15;4.85;;;;;;;;;;5070386;28;20049;-64
2023/05/18 10:05:27;;;;;;;6.15;4.03;;;;;;;;;;5060796;28;20092;-64
2023/05/18 10:07:53;;;;;;;6.20;4.80;;;;;;;;;;5069606;28;20044;-65
2023/05/18 10:10:22;;;;;;;8.07;4.88;;;;;;;;;;5051044;28;20045;-64
2023/05/18 10:12:49;;;;;;;6.07;4.40;;;;;;;;;;5064652;28;20057;-64
2023/05/18 10:15:18;;;;;;;5.18;4.10;;;;;;;;;;5069198;28;20048;-64
2023/05/18 10:17:45;;;;;;;5.55;4.60;;;;;;;;;;5070108;28;20054;-64
2023/05/18 10:20:16;;;;;;;4.82;4.32;;;;;;;;;;5068409;28;20044;-64
2023/05/18 10:22:44;;;;;;;4.90;3.97;;;;;;;;;;5070361;28;20040;-64
2023/05/18 10:25:12;;;;;;;7.13;3.95;;;;;;;;;;5067579;28;20083;-64
2023/05/18 10:27:41;;;;;;;5.80;4.28;;;;;;;;;;5071605;28;20106;-70
2023/05/18 10:30:08;;;;;;;5.55;3.88;;;;;;;;;;5066351;28;20488;-64
2023/05/18 10:32:35;;;;;;;6.18;4.45;;;;;;;;;;5070640;28;20048;-64
2023/05/18 10:35:02;;;;;;;5.47;4.50;;;;;;;;;;5065297;28;20048;-64
2023/05/18 10:37:32;;;;;;;;;;;;;;;;;;5071647;28;20049;-64
2023/05/18 10:39:59;;;;;;;5.10;4.00;;;;;;;;;;5060767;28;20065;-64
2023/05/18 10:42:25;;;;;;;5.43;4.30;;;;;;;;;;5070537;28;20396;-64
2023/05/18 10:44:52;;;;;;;6.87;4.03;;;;;;;;;;5059091;28;20092;-64
2023/05/18 10:47:18;;;;;;;5.18;3.88;;;;;;;;;;5071075;28;20277;-64
2023/05/18 10:49:47;;;;;;;4.90;3.90;;;;;;;;;;5064344;28;20411;-64
2023/05/18 10:52:15;;;;;;;4.30;3.78;;;;;;;;;;5069553;28;20097;-64
2023/05/18 10:54:42;;;;;;;4.40;3.40;;;;;;;;;;5064783;28;20053;-64
2023/05/18 10:57:16;;;;;;;5.68;3.90;;;;;;;;;;5068720;28;20049;-64
2023/05/18 10:59:43;;;;;;;4.63;3.72;;;;;;;;;;5064686;28;20485;-64
2023/05/18 11:02:15;;;;;;;3.95;3.25;;;;;;;;;;5068065;28;20048;-64
2023/05/18 11:04:41;;;;;;;4.18;3.63;;;;;;;;;;5064032;28;20057;-65
2023/05/18 11:07:12;;;;;;;4.93;3.92;;;;;;;;;;5062794;28;20049;-64
2023/05/18 11:09:42;;;;;;;7.20;4.25;;;;;;;;;;5061791;28;20053;-64
2023/05/18 11:12:12;;;;;;;7.25;4.30;;;;;;;;;;5055488;28;20181;-64
2023/05/18 11:14:49;;;;;;;8.73;6.63;;;;;;;;;;5072536;28;20056;-64
2023/05/18 11:17:16;;;;;;;;;;;;;;;;;;5074658;28;20048;-64
2023/05/18 11:20:00;;;;;;;7.10;4.07;;;;;;;;;;5071218;28;19968;-64
2023/05/18 11:22:46;;;;;;;5.30;4.15;;;;;;;;;;5073749;28;20131;-64
2023/05/18 11:25:25;;;;;;;5.50;4.20;;;;;;;;;;5070342;28;20114;-64
2023/05/18 11:27:51;;;;;;;5.45;3.90;;;;;;;;;;5074319;28;20080;-65
2023/05/18 11:30:27;;;;;;;6.70;3.97;;;;;;;;;;5069562;28;20119;-64
2023/05/18 11:33:26;;;;;;;6.25;4.28;;;;;;;;;;5073522;28;20553;-64
2023/05/18 11:36:01;;;;;;;5.82;4.30;;;;;;;;;;5026184;28;20155;-64
2023/05/18 11:38:47;;;;;;;6.20;3.97;;;;;;;;;;5069564;28;20052;-64
2023/05/18 11:41:32;;;;;;;4.47;3.70;;;;;;;;;;5066484;28;20080;-64
2023/05/18 11:44:05;;;;;;;7.18;4.05;;;;;;;;;;5073883;28;20058;-62
2023/05/18 11:46:32;;;;;;;5.28;3.92;;;;;;;;;;5067441;28;20045;-62
2023/05/18 11:49:03;;;;;;;7.68;4.10;;;;;;;;;;5074050;28;20055;-62
2023/05/18 11:51:30;;;;;;;5.35;3.90;;;;;;;;;;5065922;28;20092;-62
2023/05/18 11:53:57;;;;;;;6.65;4.07;;;;;;;;;;5073563;28;20041;-63
2023/05/18 11:56:32;;;;;;;4.40;3.88;;;;;;;;;;5064357;28;20044;-62
2023/05/18 11:59:11;;;;;;;4.53;3.30;;;;;;;;;;5073621;28;20477;-63
2023/05/18 12:01:39;;;;;;;4.50;3.53;;;;;;;;;;5058467;28;20045;-63
2023/05/18 12:04:06;;;;;;;4.70;3.40;;;;;;;;;;5071059;28;20048;-63
2023/05/18 12:06:33;;;;;;;5.78;3.92;;;;;;;;;;5058954;28;20126;-62
2023/05/18 12:09:00;;;;;;;5.95;4.10;;;;;;;;;;5073210;28;20057;-62
2023/05/18 12:11:26;;;;;;;6.32;4.03;;;;;;;;;;5044510;28;20090;-62
2023/05/18 12:13:53;;;;;;;7.55;5.60;;;;;;;;;;5073171;28;20048;-62
2023/05/18 12:16:20;;;;;;;17.50;7.05;;;;;;;;;;5071264;28;20044;-62
2023/05/18 12:18:50;;;;;;;7.63;5.65;;;;;;;;;;5073020;28;20048;-62
2023/05/18 12:21:26;;;;;;;8.25;5.57;;;;;;;;;;5068433;28;20048;-62
2023/05/18 12:23:59;;;;;;;8.45;6.05;;;;;;;;;;5073063;28;20082;-62
2023/05/18 12:26:27;;;;;;;7.47;6.18;;;;;;;;;;5069225;28;20049;-62
2023/05/18 12:28:54;;;;;;;7.45;6.30;;;;;;;;;;5073081;28;20097;-62
2023/05/18 12:31:21;;;;;;;9.02;6.65;;;;;;;;;;5067924;28;20041;-62
2023/05/18 12:33:48;;;;;;;11.20;7.43;;;;;;;;;;5072733;28;20048;-62
2023/05/18 12:36:14;;;;;;;8.68;6.57;;;;;;;;;;5066639;28;20080;-62
2023/05/18 12:38:41;;;;;;;9.85;7.15;;;;;;;;;;5072300;28;20048;-62
2023/05/18 12:41:07;;;;;;;8.10;6.55;;;;;;;;;;5061618;28;20500;-62
2023/05/18 12:43:34;;;;;;;9.05;6.68;;;;;;;;;;5072273;28;20076;-62
2023/05/18 12:46:01;;;;;;;;;;;;;;;;;;5065880;28;20164;-62
2023/05/18 12:48:29;;;;;;;7.65;5.57;;;;;;;;;;5072485;28;20265;-62
2023/05/18 12:50:56;;;;;;;16.55;6.28;;;;;;;;;;5058319;28;20634;-63
2023/05/18 12:53:22;;;;;;;9.00;6.22;;;;;;;;;;5070735;28;20048;-61
2023/05/18 12:55:57;;;;;;;9.65;6.25;;;;;;;;;;5063262;28;20466;-62
2023/05/18 12:58:23;;;;;;;6.47;5.25;;;;;;;;;;5071576;28;20076;-61
2023/05/18 13:00:50;;;;;;;7.43;5.80;;;;;;;;;;5062240;28;20106;-62
2023/05/18 13:03:17;;;;;;;11.20;7.67;;;;;;;;;;5071851;28;20499;-62
2023/05/18 13:05:45;;;;;;;8.70;7.18;;;;;;;;;;5055232;28;20143;-62
2023/05/18 13:08:20;;;;;;;7.60;6.30;;;;;;;;;;5072531;28;20041;-62
2023/05/18 13:10:47;;;;;;;8.90;6.75;;;;;;;;;;5043681;28;20188;-62
2023/05/18 13:13:26;;;;;;;8.70;6.32;;;;;;;;;;5070861;28;20078;-62
2023/05/18 13:15:53;;;;;;;8.60;5.63;;;;;;;;;;5069990;28;20088;-62
2023/05/18 13:18:19;;;;;;;7.35;5.40;;;;;;;;;;5072064;28;20564;-62
2023/05/18 13:20:49;;;;;;;9.65;6.57;;;;;;;;;;5068980;28;20098;-62
2023/05/18 13:23:17;;;;;;;8.07;6.30;;;;;;;;;;5071581;28;20043;-62
2023/05/18 13:25:45;;;;;;;10.23;5.85;;;;;;;;;;5066865;28;20522;-62
2023/05/18 13:28:13;;;;;;;6.78;4.60;;;;;;;;;;5071895;28;20040;-62
2023/05/18 13:30:40;;;;;;;8.05;5.22;;;;;;;;;;5064918;28;20053;-62
2023/05/18 13:33:07;;;;;;;7.78;4.80;;;;;;;;;;5071112;28;20048;-62
2023/05/18 13:35:34;;;;;;;6.10;4.55;;;;;;;;;;5066516;28;20048;-62
2023/05/18 13:38:01;;;;;;;7.35;4.82;;;;;;;;;;5071677;28;20056;-62
2023/05/18 13:40:27;;;;;;;6.85;4.85;;;;;;;;;;5065655;28;20098;-62
2023/05/18 13:42:54;;;;;;;7.78;4.78;;;;;;;;;;5058576;28;20074;-62
2023/05/18 13:45:20;;;;;;;7.80;4.60;;;;;;;;;;5058786;28;20037;-62
2023/05/18 13:47:52;;;;;;;4.97;4.32;;;;;;;;;;5071907;28;20114;-62
2023/05/18 13:50:19;;;;;;;6.63;4.75;;;;;;;;;;5058494;28;20040;-62
2023/05/18 13:52:46;;;;;;;6.05;4.65;;;;;;;;;;5071447;28;20140;-62
2023/05/18 13:55:13;;;;;;;8.23;4.10;;;;;;;;;;5062716;28;20053;-62
2023/05/18 13:57:40;;;;;;;4.88;3.63;;;;;;;;;;5071518;28;20056;-62
2023/05/18 14:00:11;;;;;;;;;;;;;;;;;;5055356;28;20049;-62
2023/05/18 14:02:44;;;;;;;5.07;3.95;;;;;;;;;;5071239;28;19921;-62
2023/05/18 14:05:11;;;;;;;4.88;3.50;;;;;;;;;;5052610;28;20061;-63
2023/05/18 14:07:39;;;;;;;5.25;3.70;;;;;;;;;;5064062;28;20091;-63
2023/05/18 14:10:06;;;;;;;4.45;2.78;;;;;;;;;;5060403;28;20084;-62
2023/05/18 14:12:32;;;;;;;6.30;3.60;;;;;;;;;;5064805;28;20097;-63
2023/05/18 14:14:59;;;;;;;6.18;3.40;;;;;;;;;;5069886;28;20052;-62
2023/05/18 14:17:29;;;;;;;4.07;3.20;;;;;;;;;;5070835;28;20049;-63
2023/05/18 14:19:56;;;;;;;3.45;2.63;;;;;;;;;;5068451;28;20056;-62
2023/05/18 14:22:24;;;;;;;3.45;2.55;;;;;;;;;;5070744;28;20408;-63
2023/05/18 14:24:51;;;;;;;3.28;2.30;;;;;;;;;;5067309;28;20041;-63
2023/05/18 14:27:20;;;;;;;2.97;2.67;;;;;;;;;;5070023;28;20146;-63
2023/05/18 14:29:47;;;;;;;3.95;2.92;;;;;;;;;;5067051;28;20045;-63
2023/05/18 14:32:14;;;;;;;4.40;2.80;;;;;;;;;;5070782;28;20053;-63
2023/05/18 14:34:40;;;;;;;3.80;3.40;;;;;;;;;;5064299;28;20048;-63
2023/05/18 14:37:07;;;;;;;4.30;2.90;;;;;;;;;;5069723;28;20047;-62
2023/05/18 14:39:33;;;;;;;4.10;3.28;;;;;;;;;;5066273;28;20076;-62
2023/05/18 14:42:00;;;;;;;4.85;3.10;;;;;;;;;;5069533;28;20131;-63
2023/05/18 14:44:26;;;;;;;4.00;2.90;;;;;;;;;;5067128;28;20092;-62
2023/05/18 14:46:52;;;;;;;3.42;3.05;;;;;;;;;;5072334;28;20115;-62
2023/05/18 14:49:19;;;;;;;4.53;3.00;;;;;;;;;;5071074;28;20079;-62